createdAt,value
2023-04-22T00:01:13.825Z,100.00
2023-04-22T00:03:42.223Z,100.00
2023-04-22T00:06:10.722Z,100.00
2023-04-22T00:08:40.394Z,100.00
2023-04-22T00:11:08.497Z,100.00
2023-04-22T00:13:37.108Z,100.00
2023-04-22T00:16:05.724Z,100.00
2023-04-22T00:18:35.386Z,100.00
2023-04-22T00:21:03.495Z,100.00
2023-04-22T00:23:31.857Z,100.00
2023-04-22T00:26:01.360Z,100.00
2023-04-22T00:28:29.482Z,100.00
2023-04-22T00:30:58.641Z,100.00
2023-04-22T00:33:26.814Z,100.00
2023-04-22T00:35:55.228Z,100.00
2023-04-22T00:38:23.491Z,100.00
2023-04-22T00:40:51.666Z,100.00
2023-04-22T00:43:21.242Z,100.00
2023-04-22T00:45:50.017Z,100.00
2023-04-22T00:48:18.344Z,100.00
2023-04-22T00:50:46.514Z,100.00
2023-04-22T00:53:14.751Z,100.00
2023-04-22T00:55:43.098Z,100.00
2023-04-22T00:58:11.426Z,100.00
2023-04-22T01:00:40.989Z,100.00
2023-04-22T01:03:09.552Z,100.00
2023-04-22T01:05:37.916Z,100.00
2023-04-22T01:08:06.238Z,100.00
2023-04-22T01:10:34.444Z,100.00
2023-04-22T01:13:02.687Z,100.00
2023-04-22T01:15:30.868Z,100.00
2023-04-22T01:18:01.133Z,100.00
2023-04-22T01:20:47.476Z,100.00
2023-04-22T01:23:19.976Z,100.00
2023-04-22T01:25:48.425Z,100.00
2023-04-22T01:28:17.432Z,100.00
2023-04-22T01:30:45.717Z,100.00
2023-04-22T01:33:14.038Z,100.00
2023-04-22T01:35:42.270Z,100.00
2023-04-22T01:38:11.605Z,100.00
2023-04-22T01:40:41.134Z,100.00
2023-04-22T01:43:09.308Z,100.00
2023-04-22T01:45:37.736Z,100.00
2023-04-22T01:48:06.814Z,100.00
2023-04-22T01:50:35.061Z,100.00
2023-04-22T01:53:03.579Z,100.00
2023-04-22T01:55:35.882Z,100.00
2023-04-22T01:58:05.958Z,100.00
2023-04-22T02:00:34.258Z,100.00
2023-04-22T02:03:02.927Z,100.00
2023-04-22T02:05:31.122Z,100.00
2023-04-22T02:07:59.265Z,100.00
2023-04-22T02:10:27.857Z,100.00
2023-04-22T02:12:55.972Z,100.00
2023-04-22T02:15:25.749Z,100.00
2023-04-22T02:17:53.942Z,100.00
2023-04-22T02:20:22.116Z,100.00
2023-04-22T02:22:50.702Z,100.00
2023-04-22T02:25:19.309Z,100.00
2023-04-22T02:27:47.518Z,100.00
2023-04-22T02:30:16.047Z,100.00
2023-04-22T02:32:46.200Z,100.00
2023-04-22T02:35:14.532Z,100.00
2023-04-22T02:37:42.695Z,100.00
2023-04-22T02:40:11.500Z,100.00
2023-04-22T02:42:39.788Z,100.00
2023-04-22T02:45:08.476Z,100.00
2023-04-22T02:47:36.739Z,100.00
2023-04-22T02:50:08.199Z,100.00
2023-04-22T02:52:36.540Z,100.00
2023-04-22T02:55:06.949Z,100.00
2023-04-22T02:57:37.870Z,100.00
2023-04-22T03:00:06.573Z,100.00
2023-04-22T03:02:34.893Z,100.00
2023-04-22T03:05:03.126Z,100.00
2023-04-22T03:07:32.745Z,100.00
2023-04-22T03:10:08.428Z,100.00
2023-04-22T03:12:41.121Z,100.00
2023-04-22T03:15:09.784Z,100.00
2023-04-22T03:17:37.991Z,100.00
2023-04-22T03:20:07.465Z,100.00
2023-04-22T03:22:36.984Z,100.00
2023-04-22T03:25:06.295Z,100.00
2023-04-22T03:27:34.551Z,100.00
2023-04-22T03:30:02.768Z,100.00
2023-04-22T03:32:31.017Z,100.00
2023-04-22T03:34:59.279Z,100.00
2023-04-22T03:37:28.253Z,100.00
2023-04-22T03:39:57.976Z,100.00
2023-04-22T03:42:26.277Z,100.00
2023-04-22T03:44:54.565Z,100.00
2023-04-22T03:47:22.904Z,100.00
2023-04-22T03:49:51.708Z,100.00
2023-04-22T03:52:20.318Z,100.00
2023-04-22T03:54:48.528Z,100.00
2023-04-22T03:57:19.054Z,100.00
2023-04-22T03:59:47.704Z,100.00
2023-04-22T04:02:25.501Z,100.00
2023-04-22T04:04:54.232Z,100.00
2023-04-22T04:07:22.706Z,100.00
2023-04-22T04:09:51.056Z,100.00
2023-04-22T04:12:20.809Z,100.00
2023-04-22T04:15:03.346Z,100.00
2023-04-22T04:17:31.690Z,100.00
2023-04-22T04:20:00.182Z,100.00
2023-04-22T04:22:29.143Z,100.00
2023-04-22T04:24:58.229Z,100.00
2023-04-22T04:27:27.848Z,100.00
2023-04-22T04:29:56.688Z,100.00
2023-04-22T04:32:25.513Z,100.00
2023-04-22T04:34:53.934Z,100.00
2023-04-22T04:37:22.943Z,100.00
2023-04-22T04:39:51.309Z,100.00
2023-04-22T04:42:19.805Z,100.00
2023-04-22T04:44:51.074Z,100.00
2023-04-22T04:47:20.014Z,100.00
2023-04-22T04:49:48.315Z,100.00
2023-04-22T04:52:16.678Z,100.00
2023-04-22T04:54:44.982Z,100.00
2023-04-22T04:57:13.167Z,100.00
2023-04-22T04:59:41.651Z,100.00
2023-04-22T05:02:11.596Z,100.00
2023-04-22T05:04:39.889Z,100.00
2023-04-22T05:07:08.418Z,100.00
2023-04-22T05:09:37.749Z,100.00
2023-04-22T05:12:21.217Z,100.00
2023-04-22T05:14:49.513Z,100.00
2023-04-22T05:17:19.155Z,100.00
2023-04-22T05:19:47.418Z,100.00
2023-04-22T05:22:15.869Z,100.00
2023-04-22T05:24:43.998Z,100.00
2023-04-22T05:27:12.583Z,100.00
2023-04-22T05:29:40.906Z,100.00
2023-04-22T05:32:09.652Z,100.00
2023-04-22T05:34:41.874Z,100.00
2023-04-22T05:37:10.976Z,100.00
2023-04-22T05:39:39.426Z,100.00
2023-04-22T05:42:08.991Z,100.00
2023-04-22T05:44:37.297Z,100.00
2023-04-22T05:47:05.525Z,100.00
2023-04-22T05:49:33.888Z,100.00
2023-04-22T05:52:11.895Z,100.00
2023-04-22T05:54:40.052Z,100.00
2023-04-22T05:57:08.235Z,100.00
2023-04-22T05:59:50.728Z,100.00
2023-04-22T06:02:19.072Z,100.00
2023-04-22T06:04:47.365Z,100.00
2023-04-22T06:07:17.116Z,100.00
2023-04-22T06:09:45.365Z,100.00
2023-04-22T06:12:13.652Z,100.00
2023-04-22T06:14:42.092Z,100.00
2023-04-22T06:17:12.035Z,100.00
2023-04-22T06:19:40.511Z,100.00
2023-04-22T06:22:11.258Z,100.00
2023-04-22T06:24:40.777Z,100.00
2023-04-22T06:27:09.125Z,100.00
2023-04-22T06:29:37.783Z,100.00
2023-04-22T06:32:06.216Z,100.00
2023-04-22T06:34:34.337Z,100.00
2023-04-22T06:37:02.616Z,100.00
2023-04-22T06:39:30.958Z,100.00
2023-04-22T06:42:01.509Z,100.00
2023-04-22T06:44:29.773Z,100.00
2023-04-22T06:46:58.378Z,100.00
2023-04-22T06:49:49.027Z,100.00
2023-04-22T06:52:17.364Z,100.00
2023-04-22T06:54:45.549Z,100.00
2023-04-22T06:57:15.257Z,100.00
2023-04-22T06:59:46.048Z,100.00
2023-04-22T07:02:15.262Z,100.00
2023-04-22T07:04:43.582Z,100.00
2023-04-22T07:07:12.431Z,100.00
2023-04-22T07:09:42.799Z,100.00
2023-04-22T07:12:11.072Z,100.00
2023-04-22T07:14:43.396Z,100.00
2023-04-22T07:17:11.919Z,100.00
2023-04-22T07:19:40.312Z,100.00
2023-04-22T07:22:08.901Z,99.42
2023-04-22T07:24:37.483Z,100.00
2023-04-22T07:27:05.878Z,99.97
2023-04-22T07:29:34.426Z,99.21
2023-04-22T07:32:04.382Z,95.78
2023-04-22T07:34:32.891Z,93.61
2023-04-22T07:37:01.162Z,81.56
2023-04-22T07:39:29.410Z,74.26
2023-04-22T07:41:58.531Z,70.45
2023-04-22T07:44:27.057Z,67.15
2023-04-22T07:46:56.391Z,59.96
2023-04-22T07:49:27.159Z,52.83
2023-04-22T07:51:55.529Z,46.88
2023-04-22T07:54:24.186Z,47.11
2023-04-22T07:56:52.444Z,46.20
2023-04-22T07:59:20.740Z,41.98
2023-04-22T08:01:49.345Z,40.56
2023-04-22T08:04:17.962Z,38.89
2023-04-22T08:06:47.961Z,41.41
2023-04-22T08:09:16.310Z,41.51
2023-04-22T08:11:46.504Z,41.30
2023-04-22T08:14:14.876Z,40.79
2023-04-22T08:16:43.317Z,43.86
2023-04-22T08:19:11.941Z,46.16
2023-04-22T08:21:45.943Z,46.97
2023-04-22T08:24:16.253Z,45.12
2023-04-22T08:26:44.600Z,44.03
2023-04-22T08:29:13.136Z,41.33
2023-04-22T08:31:42.045Z,40.07
2023-04-22T08:34:10.526Z,38.42
2023-04-22T08:36:38.935Z,37.24
2023-04-22T08:39:07.099Z,38.05
2023-04-22T08:41:37.882Z,37.00
2023-04-22T08:44:06.685Z,36.78
2023-04-22T08:46:35.790Z,34.64
2023-04-22T08:49:04.828Z,35.62
2023-04-22T08:51:33.626Z,36.59
2023-04-22T08:54:01.844Z,35.49
2023-04-22T08:56:31.178Z,36.04
2023-04-22T08:59:01.032Z,36.46
2023-04-22T09:01:31.284Z,36.16
2023-04-22T09:04:00.452Z,36.70
2023-04-22T09:06:28.863Z,35.01
2023-04-22T09:08:58.855Z,33.26
2023-04-22T09:11:27.791Z,35.28
2023-04-22T09:13:55.936Z,35.14
2023-04-22T09:16:25.648Z,35.69
2023-04-22T09:18:53.774Z,37.00
2023-04-22T09:21:26.087Z,37.33
2023-04-22T09:23:55.462Z,35.28
2023-04-22T09:26:24.294Z,34.92
2023-04-22T09:28:53.039Z,34.27
2023-04-22T09:31:21.971Z,32.07
2023-04-22T09:33:53.405Z,33.45
2023-04-22T09:36:23.307Z,30.62
2023-04-22T09:38:55.519Z,30.67
2023-04-22T09:41:30.244Z,30.68
2023-04-22T09:43:59.499Z,31.48
2023-04-22T09:46:28.739Z,31.98
2023-04-22T09:48:59.694Z,31.98
2023-04-22T09:51:28.530Z,30.84
2023-04-22T09:54:00.776Z,31.64
2023-04-22T09:56:44.207Z,30.75
2023-04-22T09:59:13.671Z,30.24
2023-04-22T10:01:45.241Z,32.24
2023-04-22T10:04:16.517Z,30.33
2023-04-22T10:06:44.805Z,29.64
2023-04-22T10:09:13.425Z,29.98
2023-04-22T10:11:41.693Z,28.26
2023-04-22T10:14:11.166Z,28.11
2023-04-22T10:16:40.255Z,26.99
2023-04-22T10:19:09.256Z,27.37
2023-04-22T10:21:39.090Z,29.23
2023-04-22T10:24:07.356Z,29.30
2023-04-22T10:26:50.148Z,30.24
2023-04-22T10:29:19.657Z,31.67
2023-04-22T10:31:52.839Z,30.64
2023-04-22T10:34:21.290Z,31.22
2023-04-22T10:36:58.651Z,28.39
2023-04-22T10:39:28.092Z,30.74
2023-04-22T10:41:58.103Z,32.15
2023-04-22T10:44:29.386Z,34.18
2023-04-22T10:47:01.320Z,34.95
2023-04-22T10:49:35.532Z,31.83
2023-04-22T10:52:06.071Z,27.80
2023-04-22T10:55:01.290Z,26.29
2023-04-22T10:57:35.846Z,27.03
2023-04-22T11:00:19.115Z,27.17
2023-04-22T11:02:47.833Z,27.56
2023-04-22T11:05:20.238Z,26.20
2023-04-22T11:07:50.675Z,31.75
2023-04-22T11:10:31.914Z,32.99
2023-04-22T11:13:01.480Z,30.78
2023-04-22T11:15:30.395Z,29.13
2023-04-22T11:17:58.960Z,27.10
2023-04-22T11:20:27.284Z,25.75
2023-04-22T11:22:57.408Z,24.92
2023-04-22T11:25:26.688Z,24.15
2023-04-22T11:27:55.202Z,28.43
2023-04-22T11:30:24.102Z,30.73
2023-04-22T11:32:53.263Z,32.29
2023-04-22T11:35:22.308Z,33.99
2023-04-22T11:37:51.591Z,35.15
2023-04-22T11:40:30.814Z,35.10
2023-04-22T11:43:01.111Z,36.24
2023-04-22T11:45:30.091Z,36.82
2023-04-22T11:47:58.581Z,37.95
2023-04-22T11:50:27.264Z,35.83
2023-04-22T11:52:57.233Z,36.89
2023-04-22T11:55:30.501Z,37.68
2023-04-22T11:57:59.727Z,37.59
2023-04-22T12:00:30.060Z,39.21
2023-04-22T12:02:59.642Z,39.88
2023-04-22T12:05:38.081Z,41.25
2023-04-22T12:08:10.139Z,42.61
2023-04-22T12:10:44.285Z,42.21
2023-04-22T12:13:19.402Z,41.28
2023-04-22T12:15:47.982Z,41.19
2023-04-22T12:18:16.159Z,40.27
2023-04-22T12:20:44.495Z,40.79
2023-04-22T12:23:13.223Z,40.21
2023-04-22T12:25:43.352Z,41.02
2023-04-22T12:28:11.957Z,41.40
2023-04-22T12:30:46.295Z,41.30
2023-04-22T12:33:15.134Z,40.66
2023-04-22T12:35:43.522Z,38.91
2023-04-22T12:38:11.786Z,35.60
2023-04-22T12:40:39.991Z,34.55
2023-04-22T12:43:09.600Z,35.43
2023-04-22T12:45:37.786Z,36.64
2023-04-22T12:48:06.042Z,39.42
2023-04-22T12:50:34.185Z,41.28
2023-04-22T12:53:02.364Z,42.11
2023-04-22T12:55:30.838Z,43.02
2023-04-22T12:57:59.042Z,44.02
2023-04-22T13:00:29.251Z,46.33
2023-04-22T13:02:57.833Z,46.64
2023-04-22T13:05:26.359Z,44.10
2023-04-22T13:10:28.187Z,41.55
2023-04-22T13:13:09.787Z,37.66
2023-04-22T13:15:47.216Z,34.70
2023-04-22T13:18:16.139Z,32.33
2023-04-22T13:20:44.829Z,29.74
2023-04-22T13:23:14.838Z,29.23
2023-04-22T13:25:43.228Z,30.26
2023-04-22T13:28:13.612Z,33.65
2023-04-22T13:30:52.828Z,33.53
2023-04-22T13:33:24.559Z,36.41
2023-04-22T13:35:53.046Z,38.47
2023-04-22T13:38:21.298Z,38.97
2023-04-22T13:40:49.461Z,35.16
2023-04-22T13:43:17.687Z,33.98
2023-04-22T13:45:48.447Z,37.01
2023-04-22T13:48:16.887Z,39.23
2023-04-22T13:50:45.510Z,39.94
2023-04-22T13:53:14.155Z,41.34
2023-04-22T13:55:43.216Z,42.46
2023-04-22T13:58:11.832Z,43.25
2023-04-22T14:00:40.074Z,43.63
2023-04-22T14:03:09.858Z,43.21
2023-04-22T14:05:38.498Z,44.13
2023-04-22T14:08:06.758Z,44.03
2023-04-22T14:10:35.058Z,44.13
2023-04-22T14:13:03.315Z,43.47
2023-04-22T14:15:31.452Z,43.48
2023-04-22T14:17:59.649Z,44.51
2023-04-22T14:20:29.205Z,44.71
2023-04-22T14:22:57.508Z,44.27
2023-04-22T14:25:26.200Z,44.81
2023-04-22T14:27:58.535Z,45.61
2023-04-22T14:30:26.793Z,46.88
2023-04-22T14:32:55.047Z,47.96
2023-04-22T14:35:23.298Z,48.49
2023-04-22T14:37:52.908Z,50.45
2023-04-22T14:40:23.015Z,51.19
2023-04-22T14:42:51.230Z,51.47
2023-04-22T14:45:19.527Z,51.94
2023-04-22T14:47:47.713Z,51.63
2023-04-22T14:50:15.935Z,52.40
2023-04-22T14:52:44.261Z,54.68
2023-04-22T14:55:22.421Z,55.15
2023-04-22T14:57:53.125Z,55.32
2023-04-22T15:00:21.500Z,55.45
2023-04-22T15:02:50.871Z,55.57
2023-04-22T15:05:19.087Z,55.74
2023-04-22T15:07:47.389Z,56.22
2023-04-22T15:10:17.654Z,56.88
2023-04-22T15:12:46.154Z,57.41
2023-04-22T15:15:16.049Z,58.50
2023-04-22T15:17:44.775Z,58.17
2023-04-22T15:20:13.690Z,58.40
2023-04-22T15:22:42.130Z,59.22
2023-04-22T15:25:10.857Z,59.68
2023-04-22T15:27:40.368Z,60.33
2023-04-22T15:30:09.121Z,60.19
2023-04-22T15:32:39.243Z,60.68
2023-04-22T15:35:08.416Z,60.34
2023-04-22T15:37:36.691Z,60.29
2023-04-22T15:40:06.704Z,60.45
2023-04-22T15:42:34.974Z,60.60
2023-04-22T15:45:04.830Z,60.76
2023-04-22T15:47:33.621Z,61.27
2023-04-22T15:50:06.574Z,61.23
2023-04-22T15:52:35.223Z,61.73
2023-04-22T15:55:03.398Z,62.18
2023-04-22T15:57:34.497Z,62.66
2023-04-22T16:00:11.747Z,62.15
2023-04-22T16:02:41.476Z,61.63
2023-04-22T16:05:10.297Z,61.43
2023-04-22T16:07:38.800Z,60.96
2023-04-22T16:10:07.772Z,60.52
2023-04-22T16:12:35.920Z,60.66
2023-04-22T16:15:06.751Z,59.75
2023-04-22T16:17:35.073Z,59.79
2023-04-22T16:20:05.852Z,60.31
2023-04-22T16:22:34.358Z,60.67
2023-04-22T16:25:02.902Z,60.78
2023-04-22T16:27:31.735Z,60.88
2023-04-22T16:30:00.144Z,60.80
2023-04-22T16:32:29.885Z,61.56
2023-04-22T16:34:58.200Z,60.67
2023-04-22T16:37:26.439Z,60.69
2023-04-22T16:39:55.157Z,60.96
2023-04-22T16:42:23.444Z,61.18
2023-04-22T16:44:52.321Z,61.06
2023-04-22T16:47:20.902Z,61.33
2023-04-22T16:49:50.671Z,61.24
2023-04-22T16:52:19.118Z,61.05
2023-04-22T16:54:47.331Z,61.09
2023-04-22T16:57:15.983Z,61.54
2023-04-22T16:59:44.263Z,62.83
2023-04-22T17:02:12.749Z,64.21
2023-04-22T17:04:41.396Z,66.32
2023-04-22T17:07:11.043Z,67.27
2023-04-22T17:09:39.985Z,68.30
2023-04-22T17:12:08.848Z,69.82
2023-04-22T17:14:37.064Z,71.00
2023-04-22T17:17:05.348Z,72.74
2023-04-22T17:19:33.620Z,75.28
2023-04-22T17:22:02.426Z,78.78
2023-04-22T17:24:32.030Z,82.24
2023-04-22T17:27:00.177Z,85.87
2023-04-22T17:29:28.460Z,88.44
2023-04-22T17:31:56.720Z,90.84
2023-04-22T17:34:25.341Z,93.22
2023-04-22T17:36:53.552Z,95.56
2023-04-22T17:39:22.060Z,97.21
2023-04-22T17:41:51.666Z,98.69
2023-04-22T17:44:20.158Z,99.85
2023-04-22T17:46:48.360Z,100.00
2023-04-22T17:49:16.596Z,100.00
2023-04-22T17:51:45.216Z,100.00
2023-04-22T17:54:13.907Z,100.00
2023-04-22T17:56:42.343Z,100.00
2023-04-22T17:59:12.225Z,100.00
2023-04-22T18:01:40.773Z,100.00
2023-04-22T18:04:09.186Z,100.00
2023-04-22T18:06:37.868Z,100.00
2023-04-22T18:09:06.103Z,100.00
2023-04-22T18:11:34.547Z,100.00
2023-04-22T18:14:02.977Z,100.00
2023-04-22T18:16:32.653Z,100.00
2023-04-22T18:19:03.968Z,100.00
2023-04-22T18:21:32.601Z,100.00
2023-04-22T18:24:06.882Z,100.00
2023-04-22T18:26:35.394Z,100.00
2023-04-22T18:29:05.776Z,100.00
2023-04-22T18:31:37.131Z,100.00
2023-04-22T18:34:05.739Z,100.00
2023-04-22T18:36:34.701Z,100.00
2023-04-22T18:39:05.386Z,100.00
2023-04-22T18:41:33.743Z,100.00
2023-04-22T18:44:02.031Z,100.00
2023-04-22T18:46:30.470Z,100.00
2023-04-22T18:49:12.237Z,100.00
2023-04-22T18:51:42.052Z,100.00
2023-04-22T18:54:10.705Z,100.00
2023-04-22T18:56:39.028Z,100.00
2023-04-22T18:59:07.279Z,100.00
2023-04-22T19:01:35.930Z,100.00
2023-04-22T19:04:07.839Z,100.00
2023-04-22T19:06:36.611Z,100.00
2023-04-22T19:09:05.356Z,100.00
2023-04-22T19:11:34.257Z,100.00
2023-04-22T19:14:13.372Z,100.00
2023-04-22T19:16:47.045Z,100.00
2023-04-22T19:19:17.494Z,100.00
2023-04-22T19:21:46.710Z,100.00
2023-04-22T19:24:17.212Z,100.00
2023-04-22T19:26:47.236Z,100.00
2023-04-22T19:29:20.530Z,100.00
2023-04-22T19:31:49.308Z,100.00
2023-04-22T19:34:21.609Z,100.00
2023-04-22T19:36:51.218Z,100.00
2023-04-22T19:39:21.550Z,100.00
2023-04-22T19:41:50.011Z,100.00
2023-04-22T19:44:20.874Z,100.00
2023-04-22T19:46:53.128Z,100.00
2023-04-22T19:49:23.980Z,100.00
2023-04-22T19:51:53.590Z,100.00
2023-04-22T19:54:22.879Z,100.00
2023-04-22T19:57:02.216Z,100.00
2023-04-22T19:59:40.842Z,100.00
2023-04-22T20:02:10.460Z,100.00
2023-04-22T20:04:46.965Z,100.00
2023-04-22T20:07:23.917Z,100.00
2023-04-22T20:09:56.994Z,100.00
2023-04-22T20:12:29.156Z,100.00
2023-04-22T20:15:01.728Z,100.00
2023-04-22T20:17:31.425Z,100.00
2023-04-22T20:20:07.390Z,100.00
2023-04-22T20:22:36.540Z,100.00
2023-04-22T20:25:07.893Z,100.00
2023-04-22T20:27:37.010Z,100.00
2023-04-22T20:30:07.181Z,100.00
2023-04-22T20:32:38.984Z,100.00
2023-04-22T20:35:14.964Z,100.00
2023-04-22T20:37:44.689Z,100.00
2023-04-22T20:40:15.294Z,100.00
2023-04-22T20:42:53.191Z,100.00
2023-04-22T20:45:22.017Z,100.00
2023-04-22T20:47:50.275Z,100.00
2023-04-22T20:50:20.704Z,100.00
2023-04-22T20:52:49.673Z,100.00
2023-04-22T20:55:19.642Z,100.00
2023-04-22T20:57:47.950Z,100.00
2023-04-22T21:00:16.833Z,100.00
2023-04-22T21:02:49.616Z,100.00
2023-04-22T21:05:18.761Z,100.00
2023-04-22T21:07:52.417Z,100.00
2023-04-22T21:10:21.550Z,100.00
2023-04-22T21:12:50.421Z,100.00
2023-04-22T21:15:19.449Z,100.00
2023-04-22T21:17:51.810Z,100.00
2023-04-22T21:20:20.583Z,100.00
2023-04-22T21:22:50.242Z,100.00
2023-04-22T21:25:22.421Z,100.00
2023-04-22T21:27:51.013Z,100.00
2023-04-22T21:30:19.763Z,100.00
2023-04-22T21:32:47.974Z,100.00
2023-04-22T21:35:16.210Z,100.00
2023-04-22T21:37:44.569Z,100.00
2023-04-22T21:40:14.361Z,100.00
2023-04-22T21:42:42.598Z,100.00
2023-04-22T21:45:11.175Z,100.00
2023-04-22T21:47:39.382Z,100.00
2023-04-22T21:50:09.064Z,100.00
2023-04-22T21:52:37.479Z,100.00
2023-04-22T21:55:06.298Z,100.00
2023-04-22T21:57:36.114Z,100.00
2023-04-22T22:00:05.825Z,100.00
2023-04-22T22:02:35.656Z,100.00
2023-04-22T22:05:04.036Z,100.00
2023-04-22T22:07:32.332Z,100.00
2023-04-22T22:10:00.634Z,100.00
2023-04-22T22:12:28.888Z,100.00
2023-04-22T22:14:58.448Z,100.00
2023-04-22T22:17:27.657Z,100.00
2023-04-22T22:19:57.042Z,100.00
2023-04-22T22:22:25.464Z,100.00
2023-04-22T22:24:53.702Z,100.00
2023-04-22T22:27:22.013Z,100.00
2023-04-22T22:29:50.286Z,100.00
2023-04-22T22:32:19.825Z,100.00
2023-04-22T22:34:48.056Z,100.00
2023-04-22T22:37:16.688Z,100.00
2023-04-22T22:39:44.936Z,100.00
2023-04-22T22:42:13.126Z,100.00
2023-04-22T22:44:41.621Z,100.00
2023-04-22T22:47:10.749Z,100.00
2023-04-22T22:49:40.763Z,100.00
2023-04-22T22:52:09.126Z,100.00
2023-04-22T22:54:37.556Z,100.00
2023-04-22T22:57:05.991Z,100.00
2023-04-22T22:59:34.277Z,100.00
2023-04-22T23:02:02.576Z,100.00
2023-04-22T23:04:31.120Z,100.00
2023-04-22T23:07:01.366Z,100.00
2023-04-22T23:09:29.646Z,100.00
2023-04-22T23:11:57.899Z,100.00
2023-04-22T23:14:26.709Z,100.00
2023-04-22T23:16:54.968Z,100.00
2023-04-22T23:19:23.567Z,100.00
2023-04-22T23:21:52.359Z,100.00
2023-04-22T23:24:22.150Z,100.00
2023-04-22T23:26:50.596Z,100.00
2023-04-22T23:29:19.721Z,100.00
2023-04-22T23:31:49.394Z,100.00
2023-04-22T23:34:17.739Z,100.00
2023-04-22T23:36:46.134Z,100.00
2023-04-22T23:39:14.277Z,100.00
2023-04-22T23:41:44.174Z,100.00
2023-04-22T23:44:12.391Z,100.00
2023-04-22T23:46:41.016Z,100.00
2023-04-22T23:49:09.316Z,100.00
2023-04-22T23:51:38.137Z,100.00
2023-04-22T23:54:06.615Z,100.00
2023-04-22T23:56:35.217Z,100.00
2023-04-22T23:59:05.161Z,100.00
